Time;durP1;ratioP1;P1;durP2;ratioP2;P2;SDS_P1;SDS_P2;PMS_P1;PMS_P2;Temp;Humidity;BMP_temperature;BMP_pressure;BME280_temperature;BME280_humidity;BME280_pressure;Samples;Min_cycle;Max_cycle;Signal;HPM_P1;HPM_P2
2024/01/09 00:02:12;;;;;;;14.27;7.53;;;-4.30;65.70;;;-2.88;51.59;98465.81;5071445;28;20048;-55
2024/01/09 00:04:40;;;;;;;17.37;9.33;;;-4.30;65.10;;;-2.92;51.82;98466.84;5071382;28;20051;-54
2024/01/09 00:07:07;;;;;;;16.57;9.83;;;-4.30;65.50;;;-2.94;51.64;98459.09;5071310;28;20045;-54
2024/01/09 00:09:36;;;;;;;18.57;9.80;;;-4.30;64.90;;;-2.95;51.77;98462.59;5071465;28;20056;-55
2024/01/09 00:12:04;;;;;;;22.27;11.13;;;-4.40;65.80;;;-2.93;51.75;98457.31;5070677;28;20044;-53
2024/01/09 00:14:31;;;;;;;28.33;14.47;;;-4.40;65.60;;;-2.92;51.76;98459.03;5071428;28;20041;-52
2024/01/09 00:16:59;;;;;;;36.87;15.97;;;-4.20;65.20;;;-2.92;51.52;98456.44;5071324;28;20044;-52
2024/01/09 00:19:26;;;;;;;36.60;16.03;;;-4.30;65.10;;;-2.86;51.68;98456.19;5070920;28;20040;-52
2024/01/09 00:21:56;;;;;;;27.63;13.80;;;-4.30;65.70;;;-2.79;51.08;98453.28;5070970;28;20040;-54
2024/01/09 00:24:24;;;;;;;28.77;13.70;;;-4.30;65.10;;;-2.77;51.42;98445.44;5071032;28;20040;-53
2024/01/09 00:26:51;;;;;;;30.77;14.13;;;-4.30;65.70;;;-2.82;51.22;98455.16;5071213;28;20051;-52
2024/01/09 00:29:19;;;;;;;26.17;13.43;;;-4.30;65.00;;;-2.80;51.47;98453.34;5071046;28;20044;-54
2024/01/09 00:31:47;;;;;;;18.13;11.57;;;-4.30;65.90;;;-2.82;51.53;98449.94;5070662;28;20435;-51
2024/01/09 00:34:14;;;;;;;18.53;11.23;;;-4.30;64.20;;;-2.84;51.56;98451.78;5070011;28;20044;-53
2024/01/09 00:36:44;;;;;;;22.50;10.83;;;-4.30;65.00;;;-2.88;51.20;98452.78;5071171;28;20055;-54
2024/01/09 00:39:12;;;;;;;19.17;10.83;;;-4.30;64.40;;;-2.90;51.21;98458.06;5068245;28;20052;-55
2024/01/09 00:41:39;;;;;;;19.77;9.13;;;-4.30;64.60;;;-2.89;51.39;98459.78;5070488;28;20051;-54
2024/01/09 00:44:07;;;;;;;14.43;9.17;;;-4.30;64.50;;;-2.90;51.60;98450.25;5070735;28;20048;-55
2024/01/09 00:46:35;;;;;;;17.47;8.47;;;-4.40;64.20;;;-2.92;51.44;98446.00;5070883;28;20040;-51
2024/01/09 00:49:02;;;;;;;20.83;12.03;;;-4.30;64.50;;;-2.89;51.63;98448.47;5071033;28;20067;-55
2024/01/09 00:51:30;;;;;;;20.80;10.30;;;-4.30;64.50;;;-2.86;51.14;98450.97;5069157;28;20051;-53
2024/01/09 00:53:58;;;;;;;21.87;10.43;;;-4.30;65.20;;;-2.82;51.22;98447.34;5070721;28;20041;-54
2024/01/09 00:56:26;;;;;;;21.10;11.87;;;-4.30;64.70;;;-2.81;51.05;98449.91;5070763;28;20150;-54
2024/01/09 00:58:53;;;;;;;29.50;14.70;;;-4.40;64.10;;;-2.86;51.20;98446.59;5070749;28;20048;-54
2024/01/09 01:01:21;;;;;;;31.70;14.63;;;-4.40;64.30;;;-2.86;50.93;98445.78;5070252;28;20037;-54
2024/01/09 01:03:48;;;;;;;18.97;11.10;;;-4.40;64.90;;;-2.87;51.14;98454.47;5070689;28;20036;-54
2024/01/09 01:06:16;;;;;;;17.37;10.27;;;-4.40;64.30;;;-2.93;51.10;98455.56;5070665;28;20043;-54
2024/01/09 01:08:44;;;;;;;17.37;10.00;;;-4.50;64.40;;;-2.93;51.29;98457.31;5069566;28;20052;-53
2024/01/09 01:11:12;;;;;;;16.97;8.73;;;-4.50;64.50;;;-2.92;51.32;98453.81;5070274;28;20036;-53
2024/01/09 01:13:39;;;;;;;17.10;9.67;;;-4.40;64.10;;;-2.96;51.09;98458.28;5068792;28;20052;-51
2024/01/09 01:16:07;;;;;;;12.23;7.93;;;-4.50;65.00;;;-2.92;51.18;98459.88;5070642;28;20037;-50
2024/01/09 01:18:35;;;;;;;14.43;7.57;;;-4.50;64.70;;;-2.91;51.25;98458.09;5062511;28;20044;-53
2024/01/09 01:21:02;;;;;;;13.67;8.10;;;-4.50;64.30;;;-2.94;51.24;98466.91;5070251;28;20044;-53
2024/01/09 01:23:30;;;;;;;14.27;8.83;;;-4.40;64.50;;;-3.00;50.94;98456.72;5069965;28;20040;-54
2024/01/09 01:25:58;;;;;;;17.30;7.97;;;-4.50;64.50;;;-3.00;51.49;98459.31;5070661;28;20511;-52
2024/01/09 01:28:26;;;;;;;17.00;8.57;;;-4.50;64.10;;;-3.06;51.22;98463.00;5069426;28;20487;-52
2024/01/09 01:30:54;;;;;;;20.23;9.37;;;-4.50;64.60;;;-3.04;51.21;98466.41;5067809;28;20047;-53
2024/01/09 01:33:21;;;;;;;20.90;9.47;;;-4.60;65.20;;;-3.00;51.46;98467.97;5070207;28;20044;-53
2024/01/09 01:35:50;;;;;;;18.10;9.13;;;-4.60;64.90;;;-2.97;51.35;98467.00;5070662;28;20389;-53
2024/01/09 01:38:18;;;;;;;20.87;8.90;;;-4.60;65.30;;;-2.93;51.11;98471.19;5070321;28;20435;-52
2024/01/09 01:40:46;;;;;;;19.73;10.77;;;-4.60;65.50;;;-2.95;51.33;98470.41;5070012;28;20044;-53
2024/01/09 01:43:13;;;;;;;13.73;8.27;;;-4.60;65.30;;;-2.94;50.95;98472.13;5069866;28;20045;-51
2024/01/09 01:45:41;;;;;;;18.70;8.90;;;-4.60;65.30;;;-2.98;51.17;98465.31;5070669;28;20037;-55
2024/01/09 01:48:09;;;;;;;17.67;9.37;;;-4.50;64.90;;;-3.01;51.20;98473.25;5070435;28;20041;-50
2024/01/09 01:50:38;;;;;;;15.10;8.40;;;-4.60;64.70;;;-3.02;51.03;98468.94;5064405;28;20055;-52
2024/01/09 01:53:07;;;;;;;20.87;9.30;;;-4.60;64.10;;;-3.11;51.22;98467.50;5072491;28;20044;-51
2024/01/09 01:55:36;;;;;;;16.53;8.20;;;-4.60;64.50;;;-3.12;50.81;98468.44;5072380;28;20468;-52
2024/01/09 01:58:04;;;;;;;15.17;7.97;;;-4.60;64.30;;;-3.19;50.94;98466.94;5073953;28;20523;-49
2024/01/09 02:00:32;;;;;;;14.33;8.57;;;-4.70;64.40;;;-3.14;51.10;98472.84;5073398;28;20047;-52
2024/01/09 02:03:01;;;;;;;14.20;7.53;;;-4.60;64.50;;;-3.21;51.10;98469.59;5072371;28;20041;-53
2024/01/09 02:05:30;;;;;;;13.93;7.90;;;-4.70;64.40;;;-3.26;51.49;98461.09;5072575;28;20048;-55
2024/01/09 02:07:59;;;;;;;17.13;9.40;;;-4.70;64.20;;;-3.26;51.22;98468.91;5072562;28;20033;-53
2024/01/09 02:10:26;;;;;;;17.57;8.27;;;-4.70;64.70;;;-3.24;51.33;98468.88;5064076;28;20052;-53
2024/01/09 02:12:54;;;;;;;17.10;9.00;;;-4.70;64.40;;;-3.23;51.33;98466.22;5071909;28;20053;-52
2024/01/09 02:15:22;;;;;;;14.43;8.37;;;-4.70;64.50;;;-3.21;51.24;98471.38;5073581;28;20413;-50
2024/01/09 02:17:50;;;;;;;15.93;9.00;;;-4.70;64.50;;;-3.25;50.93;98461.97;5072101;28;20049;-51
2024/01/09 02:20:24;;;;;;;20.67;9.03;;;-4.70;64.10;;;-3.33;51.11;98464.84;5071606;28;20044;-52
2024/01/09 02:22:51;;;;;;;18.20;9.18;;;-4.70;63.90;;;-3.37;51.48;98465.88;5073345;28;20059;-53
2024/01/09 02:25:19;;;;;;;16.83;8.47;;;-4.80;64.40;;;-3.36;51.23;98465.78;5073338;28;20041;-53
2024/01/09 02:27:52;;;;;;;16.00;8.80;;;-4.70;64.40;;;-3.35;51.53;98469.25;5071632;28;20051;-50
2024/01/09 02:30:20;;;;;;;18.73;8.40;;;-4.80;64.70;;;-3.31;51.28;98468.25;5072667;28;20045;-54
2024/01/09 02:32:48;;;;;;;17.80;9.10;;;-4.90;64.80;;;-3.31;51.42;98460.44;5072396;28;20044;-51
2024/01/09 02:35:16;;;;;;;19.23;10.13;;;-5.00;65.80;;;-3.27;51.02;98453.38;5071801;28;20040;-53
2024/01/09 02:37:43;;;;;;;17.37;9.27;;;-5.00;66.70;;;-3.28;51.10;98447.28;5073298;28;20349;-52
2024/01/09 02:40:11;;;;;;;17.47;9.63;;;-5.00;66.00;;;-3.26;51.26;98461.09;5070488;28;20041;-51
2024/01/09 02:42:39;;;;;;;18.10;7.77;;;-4.90;65.60;;;-3.25;51.05;98452.41;5073003;28;20384;-52
2024/01/09 02:45:06;;;;;;;17.43;8.67;;;-4.90;65.80;;;-3.29;50.84;98450.81;5072802;28;20420;-50
2024/01/09 02:47:34;;;;;;;26.50;10.97;;;-4.90;65.10;;;-3.38;51.01;98449.38;5073152;28;20045;-50
2024/01/09 02:50:02;;;;;;;19.77;9.70;;;-5.00;65.00;;;-3.44;51.21;98448.75;5072719;28;20051;-49
2024/01/09 02:52:29;;;;;;;19.97;9.93;;;-5.00;65.00;;;-3.44;51.28;98451.34;5072626;28;20052;-53
2024/01/09 02:54:57;;;;;;;16.20;8.67;;;-5.00;65.20;;;-3.43;51.42;98451.31;5072482;28;20456;-52
2024/01/09 02:57:25;;;;;;;16.03;8.30;;;-5.00;65.30;;;-3.39;51.37;98455.50;5072338;28;20040;-60
2024/01/09 02:59:52;;;;;;;15.60;8.70;;;-5.00;65.30;;;-3.37;51.21;98451.09;5072585;28;20048;-52
2024/01/09 03:02:20;;;;;;;14.30;7.40;;;-5.00;65.60;;;-3.31;51.45;98451.78;5071873;28;20060;-52
2024/01/09 03:04:48;;;;;;;15.83;9.00;;;-5.00;66.20;;;-3.29;51.09;98455.19;5072352;28;20044;-52
2024/01/09 03:07:15;;;;;;;16.80;8.10;;;-5.00;65.50;;;-3.30;51.02;98446.50;5072653;28;20292;-50
2024/01/09 03:09:43;;;;;;;15.60;8.50;;;-5.00;64.90;;;-3.38;50.88;98444.16;5072354;28;20044;-51
2024/01/09 03:12:11;;;;;;;17.80;8.47;;;-5.00;65.20;;;-3.41;51.05;98449.50;5072262;28;20048;-53
2024/01/09 03:14:39;;;;;;;14.53;8.47;;;-5.00;64.70;;;-3.46;51.30;98447.97;5071998;28;20052;-53
2024/01/09 03:17:07;;;;;;;14.37;8.23;;;-5.00;65.10;;;-3.45;51.42;98447.91;5072479;28;20048;-53
2024/01/09 03:19:35;;;;;;;13.40;7.93;;;-5.00;65.40;;;-3.42;51.22;98446.94;5072227;28;20055;-53
2024/01/09 03:22:03;;;;;;;14.17;8.57;;;-5.00;65.10;;;-3.46;51.14;98446.19;5072112;28;20036;-51
2024/01/09 03:24:31;;;;;;;15.90;7.53;;;-5.10;65.50;;;-3.45;50.67;98447.91;5071892;28;20052;-50
2024/01/09 03:26:58;;;;;;;17.00;8.57;;;-5.10;65.20;;;-3.45;51.30;98454.84;5072329;28;20412;-53
2024/01/09 03:29:26;;;;;;;19.90;9.40;;;-5.10;65.10;;;-3.49;51.42;98448.94;5072046;28;20044;-53
2024/01/09 03:31:54;;;;;;;16.80;9.23;;;-5.10;64.80;;;-3.49;51.11;98446.31;5071786;28;20419;-51
2024/01/09 03:34:22;;;;;;;16.17;8.50;;;-5.00;64.80;;;-3.49;51.40;98446.31;5069329;28;20535;-51
2024/01/09 03:36:50;;;;;;;13.63;8.40;;;-5.00;64.80;;;-3.48;51.54;98441.97;5070893;28;20045;-52
2024/01/09 03:39:17;;;;;;;17.83;8.63;;;-5.00;64.50;;;-3.50;51.46;98435.97;5071961;28;20496;-50
2024/01/09 03:41:46;;;;;;;17.10;9.23;;;-5.00;64.50;;;-3.48;51.37;98441.97;5053406;28;20044;-53
2024/01/09 03:44:13;;;;;;;16.67;9.40;;;-5.10;65.20;;;-3.44;51.36;98449.59;5070496;28;20044;-53
2024/01/09 03:46:41;;;;;;;13.17;7.47;;;-5.10;65.20;;;-3.41;50.99;98443.44;5071417;28;20041;-54
2024/01/09 03:49:09;;;;;;;18.33;9.73;;;-5.10;65.10;;;-3.40;51.08;98447.75;5071555;28;20048;-51
2024/01/09 03:51:37;;;;;;;16.67;8.83;;;-5.10;66.00;;;-3.41;51.00;98441.69;5071384;28;20052;-54
2024/01/09 03:54:04;;;;;;;19.13;9.30;;;-5.10;65.00;;;-3.44;51.05;98443.53;5070178;28;20047;-53
2024/01/09 03:56:32;;;;;;;19.43;8.43;;;-5.10;65.20;;;-3.44;51.15;98451.34;5071766;28;20055;-52
2024/01/09 03:59:00;;;;;;;18.37;8.83;;;-5.10;64.80;;;-3.45;51.26;98442.72;5071807;28;20044;-53
2024/01/09 04:01:27;;;;;;;19.20;9.23;;;-5.10;65.40;;;-3.47;51.36;98446.25;5071198;28;20423;-53
2024/01/09 04:03:56;;;;;;;15.33;8.90;;;-5.10;65.00;;;-3.45;51.09;98445.31;5071602;28;20044;-53
2024/01/09 04:06:24;;;;;;;18.50;8.80;;;-5.10;64.90;;;-3.51;51.05;98442.91;5071340;28;20040;-51
2024/01/09 04:08:52;;;;;;;18.57;9.27;;;-5.10;64.80;;;-3.51;51.01;98442.06;5070368;28;20431;-50
2024/01/09 04:11:19;;;;;;;19.07;9.10;;;-5.10;64.90;;;-3.54;51.06;98436.97;5071692;28;20048;-52
2024/01/09 04:13:47;;;;;;;19.00;9.07;;;-5.10;64.50;;;-3.54;51.32;98439.59;5070403;28;20045;-52
2024/01/09 04:16:15;;;;;;;13.90;8.30;;;-5.10;64.80;;;-3.53;51.26;98441.25;5071528;28;20040;-51
2024/01/09 04:18:42;;;;;;;16.13;7.60;;;-5.10;64.60;;;-3.53;51.09;98443.88;5071498;28;20049;-53
2024/01/09 04:21:10;;;;;;;16.53;7.40;;;-5.10;64.30;;;-3.57;51.39;98438.78;5053172;28;20037;-52
2024/01/09 04:23:37;;;;;;;17.03;7.90;;;-5.20;64.10;;;-3.59;51.20;98435.38;5071068;28;20499;-51
2024/01/09 04:26:05;;;;;;;13.50;7.60;;;-5.10;64.20;;;-3.59;51.45;98437.13;5070297;28;20511;-54
2024/01/09 04:28:33;;;;;;;12.90;8.10;;;-5.20;64.90;;;-3.53;51.29;98443.88;5071262;28;20522;-50
2024/01/09 04:31:00;;;;;;;16.37;7.47;;;-5.20;64.90;;;-3.53;51.11;98449.91;5068514;28;20356;-52
2024/01/09 04:33:28;;;;;;;16.93;8.70;;;-5.20;64.50;;;-3.51;51.23;98447.25;5070198;28;20126;-52
2024/01/09 04:35:56;;;;;;;20.17;8.73;;;-5.20;64.50;;;-3.55;51.15;98443.91;5071187;28;20044;-52
2024/01/09 04:38:23;;;;;;;16.00;8.13;;;-5.20;64.60;;;-3.56;51.08;98444.84;5070986;28;20040;-50
2024/01/09 04:40:52;;;;;;;17.03;8.27;;;-5.20;65.00;;;-3.52;50.97;98448.19;5070673;28;20044;-51
2024/01/09 04:43:20;;;;;;;14.27;8.77;;;-5.20;64.20;;;-3.54;51.24;98443.03;5070771;28;20037;-49
2024/01/09 04:45:47;;;;;;;14.70;9.23;;;-5.10;64.30;;;-3.53;51.57;98444.72;5069733;28;20493;-54
2024/01/09 04:48:15;;;;;;;17.73;8.93;;;-5.10;65.30;;;-3.46;51.20;98442.75;5071093;28;20419;-50
2024/01/09 04:50:43;;;;;;;26.83;12.67;;;-5.10;65.00;;;-3.43;51.11;98447.84;5070631;28;20436;-56
2024/01/09 04:53:10;;;;;;;31.90;16.40;;;-5.10;64.90;;;-3.41;50.93;98443.44;5069076;28;20040;-52
2024/01/09 04:55:38;;;;;;;40.40;17.23;;;-5.10;64.90;;;-3.40;51.04;98438.16;5070694;28;20423;-53
2024/01/09 04:58:06;;;;;;;40.23;16.63;;;-5.20;65.10;;;-3.38;51.04;98448.53;5071006;28;20048;-50
2024/01/09 05:00:33;;;;;;;22.47;12.27;;;-5.20;64.90;;;-3.39;51.17;98432.06;5069967;28;20041;-51
2024/01/09 05:03:01;;;;;;;20.17;10.13;;;-5.20;64.70;;;-3.43;50.64;98437.41;5070420;28;20484;-53
2024/01/09 05:05:29;;;;;;;22.00;11.27;;;-5.20;64.80;;;-3.41;50.57;98439.09;5070814;28;20115;-49
2024/01/09 05:07:56;;;;;;;21.23;10.43;;;-5.20;65.50;;;-3.39;50.81;98441.63;5062721;28;20064;-50
2024/01/09 05:10:24;;;;;;;19.27;10.17;;;-5.20;65.10;;;-3.37;50.77;98435.47;5070194;28;20044;-52
2024/01/09 05:12:52;;;;;;;15.13;8.93;;;-5.20;65.00;;;-3.37;50.74;98437.22;5070799;28;20408;-52
2024/01/09 05:15:19;;;;;;;22.73;10.70;;;-5.20;64.60;;;-3.42;50.79;98439.97;5070687;28;20044;-51
2024/01/09 05:17:47;;;;;;;15.60;8.67;;;-5.20;64.70;;;-3.44;50.77;98438.34;5070548;28;20052;-51
2024/01/09 05:20:15;;;;;;;18.73;8.87;;;-5.20;65.40;;;-3.44;51.02;98440.94;5070077;28;20045;-54
2024/01/09 05:22:42;;;;;;;16.17;8.47;;;-5.30;65.40;;;-3.44;50.79;98440.94;5070714;28;20432;-53
2024/01/09 05:25:10;;;;;;;18.33;9.40;;;-5.20;64.70;;;-3.45;50.96;98440.09;5073027;28;20045;-53
2024/01/09 05:27:38;;;;;;;15.93;9.60;;;-5.20;65.30;;;-3.45;50.67;98442.72;5075226;28;20045;-51
2024/01/09 05:30:09;;;;;;;17.73;9.30;;;-5.20;64.50;;;-3.44;51.01;98444.38;5072922;28;20052;-54
2024/01/09 05:32:37;;;;;;;20.40;10.70;;;-5.20;65.50;;;-3.45;50.58;98442.72;5074059;28;20041;-51
2024/01/09 05:35:08;;;;;;;16.80;9.27;;;-5.30;65.10;;;-3.44;50.79;98435.72;5072731;28;20488;-52
2024/01/09 05:37:35;;;;;;;17.00;8.57;;;-5.30;65.20;;;-3.43;51.08;98450.44;5074478;28;20045;-53
2024/01/09 05:40:04;;;;;;;23.70;9.10;;;-5.30;65.70;;;-3.43;50.58;98451.31;5072584;28;20504;-52
2024/01/09 05:42:31;;;;;;;17.53;9.07;;;-5.30;65.20;;;-3.41;50.68;98451.25;5074457;28;20045;-53
2024/01/09 05:44:59;;;;;;;15.27;9.50;;;-5.30;65.20;;;-3.40;50.61;98451.19;5073231;28;20033;-51
2024/01/09 05:47:26;;;;;;;18.37;9.47;;;-5.30;65.60;;;-3.41;50.59;98453.88;5074048;28;20041;-53
2024/01/09 05:49:54;;;;;;;15.70;8.50;;;-5.30;65.30;;;-3.41;50.78;98457.31;5073951;28;20048;-52
2024/01/09 05:52:22;;;;;;;17.83;9.13;;;-5.30;65.20;;;-3.40;50.55;98453.78;5074285;28;20044;-53
2024/01/09 05:54:49;;;;;;;20.53;9.80;;;-5.30;64.90;;;-3.42;50.59;98458.19;5073946;28;20044;-52
2024/01/09 05:57:17;;;;;;;16.30;9.70;;;-5.20;65.10;;;-3.43;50.61;98460.84;5073977;28;20044;-52
2024/01/09 05:59:45;;;;;;;16.00;8.57;;;-5.40;65.20;;;-3.44;50.86;98454.81;5073872;28;20051;-51
2024/01/09 06:02:12;;;;;;;17.53;9.70;;;-5.40;65.60;;;-3.43;50.69;98453.91;5073662;28;20036;-53
2024/01/09 06:04:40;;;;;;;17.43;8.20;;;-5.40;65.90;;;-3.43;50.71;98459.13;5072605;28;20392;-51
2024/01/09 06:07:08;;;;;;;18.70;8.20;;;-5.40;65.30;;;-3.45;50.81;98453.13;5073785;28;20045;-54
2024/01/09 06:09:36;;;;;;;20.27;8.73;;;-5.40;65.30;;;-3.46;50.79;98454.00;5073867;28;20412;-52
2024/01/09 06:12:04;;;;;;;15.70;7.73;;;-5.40;65.60;;;-3.46;50.86;98464.44;5073506;28;20045;-51
2024/01/09 06:14:32;;;;;;;18.17;9.47;;;-5.40;65.80;;;-3.45;50.63;98465.25;5073679;28;20055;-50
2024/01/09 06:16:59;;;;;;;16.50;8.63;;;-5.40;65.30;;;-3.46;50.62;98461.81;5073276;28;20047;-50
2024/01/09 06:19:27;;;;;;;21.43;8.93;;;-5.40;65.10;;;-3.47;50.87;98457.53;5073361;28;20048;-52
2024/01/09 06:21:55;;;;;;;19.20;9.00;;;-5.40;66.00;;;-3.45;50.78;98454.84;5073210;28;20154;-51
2024/01/09 06:24:22;;;;;;;16.00;8.07;;;-5.40;66.10;;;-3.44;51.04;98454.81;5073474;28;20072;-52
2024/01/09 06:26:50;;;;;;;16.50;9.20;;;-5.40;66.30;;;-3.44;50.69;98460.00;5073543;28;20055;-53
2024/01/09 06:29:18;;;;;;;20.77;10.80;;;-5.40;65.70;;;-3.43;50.74;98459.13;5073412;28;20067;-52
2024/01/09 06:31:46;;;;;;;24.03;10.83;;;-5.30;65.70;;;-3.42;50.84;98457.34;5073288;28;20048;-53
2024/01/09 06:34:14;;;;;;;26.57;12.77;;;-5.30;65.70;;;-3.44;50.72;98460.00;5072698;28;20056;-52
2024/01/09 06:36:45;;;;;;;18.40;9.50;;;-5.30;65.50;;;-3.48;51.32;98461.03;5072116;28;20052;-52
2024/01/09 06:39:13;;;;;;;21.30;11.77;;;-5.30;65.60;;;-3.53;50.88;98455.13;5073369;28;20055;-52
2024/01/09 06:41:41;;;;;;;20.73;10.20;;;-5.30;65.20;;;-3.55;51.09;98459.53;5072914;28;20063;-53
2024/01/09 06:44:09;;;;;;;24.87;14.53;;;-5.30;65.30;;;-3.56;50.91;98458.69;5072110;28;20036;-50
2024/01/09 06:46:37;;;;;;;27.50;10.97;;;-5.40;65.30;;;-3.54;50.94;98460.41;5073301;28;20419;-52
2024/01/09 06:49:05;;;;;;;24.60;11.30;;;-5.40;65.70;;;-3.57;51.10;98466.53;5065181;28;20043;-52
2024/01/09 06:51:33;;;;;;;22.70;11.50;;;-5.40;65.80;;;-3.51;50.81;98463.72;5072241;28;20040;-51
2024/01/09 06:54:00;;;;;;;25.50;12.03;;;-5.30;65.70;;;-3.52;50.81;98469.00;5072970;28;20045;-49
2024/01/09 06:56:28;;;;;;;20.80;11.77;;;-5.30;65.60;;;-3.50;51.13;98465.44;5073182;28;20052;-52
2024/01/09 06:58:56;;;;;;;18.00;9.50;;;-5.40;66.70;;;-3.47;50.79;98473.16;5073035;28;20056;-54
2024/01/09 07:01:23;;;;;;;17.87;9.23;;;-5.40;66.10;;;-3.44;50.75;98474.78;5073030;28;20492;-53
2024/01/09 07:03:51;;;;;;;16.97;9.57;;;-5.30;65.50;;;-3.46;50.92;98467.03;5072771;28;20048;-50
2024/01/09 07:06:18;;;;;;;21.87;10.57;;;-5.30;66.00;;;-3.44;50.75;98475.63;5073229;28;20377;-50
2024/01/09 07:08:47;;;;;;;19.30;9.97;;;-5.30;67.10;;;-3.43;50.86;98473.88;5072986;28;20049;-50
2024/01/09 07:11:15;;;;;;;20.30;11.23;;;-5.40;66.30;;;-3.43;51.01;98477.34;5072734;28;20442;-54
2024/01/09 07:13:42;;;;;;;27.37;11.43;;;-5.40;66.60;;;-3.42;50.77;98476.44;5072458;28;20251;-50
2024/01/09 07:16:10;;;;;;;19.23;10.43;;;-5.40;66.50;;;-3.40;50.89;98472.00;5072862;28;20040;-51
2024/01/09 07:18:38;;;;;;;21.90;10.67;;;-5.30;66.60;;;-3.40;50.69;98473.78;5072562;28;20040;-53
2024/01/09 07:21:06;;;;;;;19.63;10.30;;;-5.40;66.20;;;-3.43;50.76;98477.34;5070886;28;20049;-54
2024/01/09 07:23:34;;;;;;;25.00;11.00;;;-5.40;65.90;;;-3.46;50.64;98479.19;5072373;28;20048;-51
2024/01/09 07:26:02;;;;;;;20.97;10.43;;;-5.40;66.50;;;-3.48;51.00;98479.25;5072206;28;20048;-53
2024/01/09 07:28:30;;;;;;;18.87;10.40;;;-5.40;66.60;;;-3.47;50.75;98472.28;5072307;28;20036;-52
2024/01/09 07:30:59;;;;;;;19.67;10.57;;;-5.40;66.40;;;-3.49;50.84;98474.09;5072106;28;20044;-49
2024/01/09 07:33:27;;;;;;;19.63;11.37;;;-5.40;66.60;;;-3.50;50.91;98478.44;5068480;28;20447;-53
2024/01/09 07:35:55;;;;;;;27.13;12.13;;;-5.40;66.80;;;-3.47;51.04;98478.34;5072272;28;20514;-50
2024/01/09 07:38:24;;;;;;;21.70;11.13;;;-5.40;66.80;;;-3.48;51.21;98481.00;5072108;28;20052;-53
2024/01/09 07:40:52;;;;;;;21.43;11.07;;;-5.40;66.60;;;-3.48;51.25;98481.84;5070512;28;20511;-50
2024/01/09 07:43:23;;;;;;;23.47;11.03;;;-5.40;67.00;;;-3.47;50.89;98487.91;5071851;28;20064;-49
2024/01/09 07:45:51;;;;;;;24.70;12.20;;;-5.30;66.70;;;-3.47;50.96;98486.16;5072156;28;20056;-51
2024/01/09 07:48:20;;;;;;;22.30;11.43;;;-5.40;66.80;;;-3.46;51.27;98492.22;5069931;28;20092;-48
2024/01/09 07:50:48;;;;;;;17.90;10.93;;;-5.40;66.40;;;-3.48;51.16;98481.00;5066400;28;20033;-54
2024/01/09 07:53:16;;;;;;;18.93;11.77;;;-5.40;66.90;;;-3.50;51.09;98493.22;5064497;28;20045;-52
2024/01/09 07:55:44;;;;;;;19.03;11.03;;;-5.40;66.60;;;-3.49;51.25;98493.19;5064963;28;20041;-54
2024/01/09 07:58:12;;;;;;;17.70;9.97;;;-5.30;67.20;;;-3.45;51.09;98501.72;5063018;28;20044;-51
2024/01/09 08:00:39;;;;;;;16.63;9.73;;;-5.40;67.00;;;-3.43;51.01;98503.38;5071489;28;20118;-54
2024/01/09 08:03:07;;;;;;;17.23;8.77;;;-5.30;66.80;;;-3.39;51.33;98502.38;5071161;28;20101;-54
2024/01/09 08:05:35;;;;;;;20.40;9.60;;;-5.20;66.60;;;-3.36;51.46;98506.59;5071681;28;20443;-53
2024/01/09 08:08:03;;;;;;;31.03;9.13;;;-5.20;66.70;;;-3.32;51.26;98502.16;5071353;28;20392;-52
2024/01/09 08:10:31;;;;;;;18.40;9.30;;;-5.20;66.80;;;-3.30;51.29;98506.38;5069558;28;20389;-54
2024/01/09 08:12:58;;;;;;;18.40;9.07;;;-5.20;66.90;;;-3.28;51.01;98509.78;5071144;28;20479;-52
2024/01/09 08:15:26;;;;;;;21.03;9.10;;;-5.20;66.80;;;-3.27;51.28;98508.91;5070321;28;20365;-52
2024/01/09 08:17:54;;;;;;;17.73;8.07;;;-5.20;67.00;;;-3.23;51.34;98509.66;5071386;28;20048;-50
2024/01/09 08:20:22;;;;;;;15.30;7.70;;;-5.20;66.60;;;-3.21;51.42;98500.03;5071090;28;20068;-52
2024/01/09 08:22:50;;;;;;;17.70;8.27;;;-5.10;66.70;;;-3.20;50.65;98504.31;5070846;28;20051;-53
2024/01/09 08:25:17;;;;;;;16.27;8.80;;;-5.10;66.50;;;-3.18;51.27;98500.75;5071208;28;20044;-53
2024/01/09 08:27:45;;;;;;;17.17;8.10;;;-5.10;66.30;;;-3.18;51.22;98497.28;5070087;28;20036;-53
2024/01/09 08:30:14;;;;;;;17.20;9.27;;;-5.10;66.50;;;-3.17;50.90;98499.00;5071086;28;20041;-54
2024/01/09 08:32:42;;;;;;;25.43;10.83;;;-5.10;66.10;;;-3.14;51.08;98505.84;5071279;28;20040;-50
2024/01/09 08:35:10;;;;;;;21.10;9.03;;;-5.10;66.00;;;-3.13;50.98;98503.19;5070527;28;20067;-51
2024/01/09 08:37:38;;;;;;;16.80;11.10;;;-5.10;66.00;;;-3.10;51.09;98500.50;5069612;28;20048;-52
2024/01/09 08:40:07;;;;;;;17.77;9.47;;;-5.00;66.10;;;-3.08;51.17;98509.09;5070637;28;20049;-53
2024/01/09 08:42:34;;;;;;;18.20;9.33;;;-5.00;65.90;;;-3.08;51.30;98506.50;5070914;28;20048;-53
2024/01/09 08:45:02;;;;;;;14.20;9.30;;;-5.00;65.90;;;-3.06;50.95;98512.50;5070252;28;20033;-50
2024/01/09 08:47:30;;;;;;;21.70;9.73;;;-5.00;66.00;;;-3.04;50.89;98507.25;5070926;28;20036;-52
2024/01/09 08:49:57;;;;;;;17.83;9.30;;;-5.00;65.60;;;-3.03;50.85;98507.16;5070675;28;20055;-52
2024/01/09 08:52:25;;;;;;;20.20;8.97;;;-5.00;65.30;;;-3.01;50.87;98512.31;5070555;28;20049;-53
2024/01/09 08:54:54;;;;;;;17.27;8.63;;;-5.00;64.70;;;-3.00;51.18;98512.28;5070645;28;20048;-51
2024/01/09 08:57:21;;;;;;;25.17;10.90;;;-4.90;65.00;;;-2.95;51.00;98519.06;5071277;28;20044;-52
2024/01/09 08:59:49;;;;;;;20.53;9.60;;;-4.80;65.10;;;-2.94;51.03;98508.59;5070855;28;20049;-51
2024/01/09 09:02:17;;;;;;;18.80;8.57;;;-4.80;64.80;;;-2.95;51.02;98506.88;5070225;28;20048;-52
2024/01/09 09:04:44;;;;;;;17.40;10.13;;;-4.80;64.30;;;-2.93;51.02;98499.84;5070881;28;20049;-52
2024/01/09 09:07:12;;;;;;;19.73;9.50;;;-4.80;64.30;;;-2.93;50.87;98501.63;5070720;28;20040;-53
2024/01/09 09:09:40;;;;;;;18.07;10.00;;;-4.80;64.30;;;-2.91;50.84;98499.81;5070766;28;20044;-51
2024/01/09 09:12:08;;;;;;;20.50;9.60;;;-4.80;64.80;;;-2.90;51.04;98499.75;5070443;28;20526;-50
2024/01/09 09:14:35;;;;;;;21.63;10.20;;;-4.70;64.40;;;-2.86;51.08;98501.34;5070688;28;20115;-52
2024/01/09 09:17:03;;;;;;;16.90;8.57;;;-4.70;65.30;;;-2.82;51.01;98495.09;5070383;28;20056;-55
2024/01/09 09:19:31;;;;;;;18.13;8.83;;;-4.70;65.60;;;-2.78;51.02;98509.72;5069267;28;20049;-51
2024/01/09 09:22:01;;;;;;;13.70;7.73;;;-4.70;64.80;;;-2.73;51.28;98504.34;5070211;28;20048;-54
2024/01/09 09:24:29;;;;;;;18.90;8.47;;;-4.60;65.00;;;-2.65;51.01;98504.91;5070588;28;20048;-52
2024/01/09 09:26:56;;;;;;;18.17;9.97;;;-4.50;64.60;;;-2.62;51.17;98496.97;5070537;28;20040;-52
2024/01/09 09:29:24;;;;;;;17.37;8.30;;;-4.50;64.30;;;-2.58;50.90;98501.16;5070780;28;20071;-53
2024/01/09 09:32:05;;;;;;;15.40;8.13;;;-4.40;63.80;;;-2.54;50.98;98499.25;5069985;28;20047;-52
2024/01/09 09:34:32;;;;;;;17.50;8.17;;;-4.40;63.10;;;-2.50;50.89;98498.25;5068597;28;20053;-51
2024/01/09 09:37:00;;;;;;;19.80;9.87;;;-4.30;62.60;;;-2.46;50.69;98499.84;5070583;28;20427;-52
2024/01/09 09:39:27;;;;;;;15.13;8.00;;;-4.30;62.50;;;-2.41;50.69;98499.66;5069698;28;20044;-53
2024/01/09 09:41:59;;;;;;;15.37;7.97;;;-4.30;62.70;;;-2.37;50.76;98496.84;5069969;28;20048;-53
2024/01/09 09:44:27;;;;;;;17.77;8.63;;;-4.20;62.60;;;-2.34;51.06;98495.91;5078098;28;20423;-52
2024/01/09 09:46:58;;;;;;;17.00;8.37;;;-4.10;62.10;;;-2.31;50.33;98494.94;5070474;28;20044;-53
2024/01/09 09:49:26;;;;;;;15.17;7.60;;;-4.10;61.90;;;-2.29;50.04;98491.34;5062851;28;20392;-52
2024/01/09 09:51:54;;;;;;;15.37;7.57;;;-4.10;61.50;;;-2.24;50.28;98493.78;5070154;28;20435;-53
2024/01/09 09:54:23;;;;;;;14.70;7.90;;;-4.10;61.30;;;-2.21;49.98;98493.66;5069942;28;20053;-52
2024/01/09 09:56:51;;;;;;;12.63;7.53;;;-4.00;60.20;;;-2.16;50.24;98494.31;5069380;28;20515;-52
2024/01/09 09:59:19;;;;;;;18.13;8.97;;;-3.90;60.80;;;-2.12;50.40;98488.06;5070173;28;20056;-53
2024/01/09 10:01:47;;;;;;;15.83;7.43;;;-3.90;59.30;;;-2.04;50.35;98491.22;5069970;28;20527;-52
2024/01/09 10:04:48;;;;;;;14.07;7.30;;;-3.80;60.10;;;-1.98;50.06;98487.50;5069982;28;20044;-53
2024/01/09 10:07:20;;;;;;;15.83;7.77;;;-3.70;58.10;;;-1.95;49.79;98492.63;5070203;28;20041;-50
2024/01/09 10:09:52;;;;;;;12.13;7.20;;;-3.70;59.30;;;-1.90;50.07;98489.81;5070324;28;20044;-53
2024/01/09 10:12:23;;;;;;;17.67;8.63;;;-3.60;59.10;;;-1.87;49.61;98479.25;5071972;28;20048;-52
2024/01/09 10:15:08;;;;;;;22.83;10.57;;;-3.60;58.70;;;-1.81;50.11;98485.06;5074268;28;20048;-50